sensor_id;sensor_type;location;lat;lon;timestamp;P1;durP1;ratioP1;P2;durP2;ratioP2
56680;SDS011;42558;52.388;13.390;2023-05-28T00:01:47;15.01;;;8.74;;
56680;SDS011;42558;52.388;13.390;2023-05-28T00:04:17;15.77;;;8.74;;
56680;SDS011;42558;52.388;13.390;2023-05-28T00:06:47;20.33;;;8.17;;
56680;SDS011;42558;52.388;13.390;2023-05-28T00:09:22;23.94;;;8.93;;
56680;SDS011;42558;52.388;13.390;2023-05-28T00:11:52;14.82;;;7.41;;
56680;SDS011;42558;52.388;13.390;2023-05-28T00:14:22;15.77;;;8.55;;
56680;SDS011;42558;52.388;13.390;2023-05-28T00:16:52;16.72;;;8.36;;
56680;SDS011;42558;52.388;13.390;2023-05-28T00:19:22;14.63;;;8.17;;
56680;SDS011;42558;52.388;13.390;2023-05-28T00:21:52;19.38;;;8.36;;
56680;SDS011;42558;52.388;13.390;2023-05-28T00:24:22;16.34;;;9.69;;
56680;SDS011;42558;52.388;13.390;2023-05-28T00:26:52;13.30;;;8.36;;
56680;SDS011;42558;52.388;13.390;2023-05-28T00:29:22;18.24;;;8.55;;
56680;SDS011;42558;52.388;13.390;2023-05-28T00:31:54;12.54;;;7.79;;
56680;SDS011;42558;52.388;13.390;2023-05-28T00:34:27;15.20;;;7.41;;
56680;SDS011;42558;52.388;13.390;2023-05-28T00:36:56;15.20;;;7.98;;
56680;SDS011;42558;52.388;13.390;2023-05-28T00:39:26;15.96;;;7.79;;
56680;SDS011;42558;52.388;13.390;2023-05-28T00:42:01;14.06;;;7.79;;
56680;SDS011;42558;52.388;13.390;2023-05-28T00:44:31;18.43;;;8.55;;
56680;SDS011;42558;52.388;13.390;2023-05-28T00:47:00;16.53;;;9.50;;
56680;SDS011;42558;52.388;13.390;2023-05-28T00:49:31;15.39;;;8.74;;
56680;SDS011;42558;52.388;13.390;2023-05-28T00:52:05;20.14;;;10.26;;
56680;SDS011;42558;52.388;13.390;2023-05-28T00:54:38;14.82;;;8.74;;
56680;SDS011;42558;52.388;13.390;2023-05-28T00:57:08;15.77;;;9.69;;
56680;SDS011;42558;52.388;13.390;2023-05-28T00:59:38;14.06;;;7.98;;
56680;SDS011;42558;52.388;13.390;2023-05-28T01:02:08;15.20;;;9.12;;
56680;SDS011;42558;52.388;13.390;2023-05-28T01:04:38;14.44;;;8.36;;
56680;SDS011;42558;52.388;13.390;2023-05-28T01:07:09;16.72;;;9.88;;
56680;SDS011;42558;52.388;13.390;2023-05-28T01:09:39;15.39;;;8.93;;
56680;SDS011;42558;52.388;13.390;2023-05-28T01:12:08;21.85;;;9.88;;
56680;SDS011;42558;52.388;13.390;2023-05-28T01:14:39;19.19;;;9.31;;
56680;SDS011;42558;52.388;13.390;2023-05-28T01:17:07;15.96;;;9.31;;
56680;SDS011;42558;52.388;13.390;2023-05-28T01:19:37;15.39;;;9.88;;
56680;SDS011;42558;52.388;13.390;2023-05-28T01:22:05;19.95;;;9.69;;
56680;SDS011;42558;52.388;13.390;2023-05-28T01:24:34;16.15;;;9.12;;
56680;SDS011;42558;52.388;13.390;2023-05-28T01:27:06;18.62;;;9.88;;
56680;SDS011;42558;52.388;13.390;2023-05-28T01:29:36;15.77;;;9.12;;
56680;SDS011;42558;52.388;13.390;2023-05-28T01:32:06;13.30;;;9.31;;
56680;SDS011;42558;52.388;13.390;2023-05-28T01:34:36;17.48;;;9.69;;
56680;SDS011;42558;52.388;13.390;2023-05-28T01:37:08;19.38;;;9.69;;
56680;SDS011;42558;52.388;13.390;2023-05-28T01:39:43;22.23;;;9.69;;
56680;SDS011;42558;52.388;13.390;2023-05-28T01:42:14;18.43;;;9.50;;
56680;SDS011;42558;52.388;13.390;2023-05-28T01:44:45;16.91;;;9.12;;
56680;SDS011;42558;52.388;13.390;2023-05-28T01:47:15;15.96;;;9.50;;
56680;SDS011;42558;52.388;13.390;2023-05-28T01:49:46;16.53;;;9.31;;
56680;SDS011;42558;52.388;13.390;2023-05-28T01:52:16;19.38;;;9.12;;
56680;SDS011;42558;52.388;13.390;2023-05-28T01:54:49;20.71;;;9.69;;
56680;SDS011;42558;52.388;13.390;2023-05-28T01:57:16;16.72;;;8.74;;
56680;SDS011;42558;52.388;13.390;2023-05-28T01:59:48;19.95;;;8.74;;
56680;SDS011;42558;52.388;13.390;2023-05-28T02:02:18;16.34;;;9.88;;
56680;SDS011;42558;52.388;13.390;2023-05-28T02:04:50;15.20;;;9.88;;
56680;SDS011;42558;52.388;13.390;2023-05-28T02:07:21;17.10;;;10.64;;
56680;SDS011;42558;52.388;13.390;2023-05-28T02:09:51;15.39;;;9.50;;
56680;SDS011;42558;52.388;13.390;2023-05-28T02:12:21;17.29;;;9.31;;
56680;SDS011;42558;52.388;13.390;2023-05-28T02:14:51;15.96;;;9.69;;
56680;SDS011;42558;52.388;13.390;2023-05-28T02:17:21;17.86;;;9.50;;
56680;SDS011;42558;52.388;13.390;2023-05-28T02:19:51;17.86;;;9.31;;
56680;SDS011;42558;52.388;13.390;2023-05-28T02:22:21;16.72;;;9.50;;
56680;SDS011;42558;52.388;13.390;2023-05-28T02:24:51;18.62;;;10.45;;
56680;SDS011;42558;52.388;13.390;2023-05-28T02:27:21;16.53;;;9.31;;
56680;SDS011;42558;52.388;13.390;2023-05-28T02:29:51;17.67;;;10.07;;
56680;SDS011;42558;52.388;13.390;2023-05-28T02:32:21;18.24;;;10.45;;
56680;SDS011;42558;52.388;13.390;2023-05-28T02:34:51;15.39;;;9.31;;
56680;SDS011;42558;52.388;13.390;2023-05-28T02:37:23;17.29;;;9.88;;
56680;SDS011;42558;52.388;13.390;2023-05-28T02:39:53;19.00;;;10.07;;
56680;SDS011;42558;52.388;13.390;2023-05-28T02:42:23;17.67;;;10.07;;
56680;SDS011;42558;52.388;13.390;2023-05-28T02:44:53;16.91;;;10.26;;
56680;SDS011;42558;52.388;13.390;2023-05-28T02:47:23;18.43;;;10.07;;
56680;SDS011;42558;52.388;13.390;2023-05-28T02:49:53;14.44;;;9.31;;
56680;SDS011;42558;52.388;13.390;2023-05-28T02:52:23;16.91;;;9.88;;
56680;SDS011;42558;52.388;13.390;2023-05-28T02:54:53;18.43;;;10.07;;
56680;SDS011;42558;52.388;13.390;2023-05-28T02:57:22;22.99;;;10.64;;
56680;SDS011;42558;52.388;13.390;2023-05-28T02:59:52;17.86;;;11.02;;
56680;SDS011;42558;52.388;13.390;2023-05-28T03:02:22;18.43;;;10.83;;
56680;SDS011;42558;52.388;13.390;2023-05-28T03:04:52;21.66;;;10.83;;
56680;SDS011;42558;52.388;13.390;2023-05-28T03:07:22;17.48;;;11.02;;
56680;SDS011;42558;52.388;13.390;2023-05-28T03:09:52;19.76;;;10.83;;
56680;SDS011;42558;52.388;13.390;2023-05-28T03:12:22;20.33;;;10.64;;
56680;SDS011;42558;52.388;13.390;2023-05-28T03:14:52;19.76;;;11.21;;
56680;SDS011;42558;52.388;13.390;2023-05-28T03:17:22;23.18;;;11.59;;
56680;SDS011;42558;52.388;13.390;2023-05-28T03:19:52;16.91;;;11.40;;
56680;SDS011;42558;52.388;13.390;2023-05-28T03:22:22;16.91;;;9.88;;
56680;SDS011;42558;52.388;13.390;2023-05-28T03:24:50;21.09;;;10.45;;
56680;SDS011;42558;52.388;13.390;2023-05-28T03:27:19;18.05;;;9.88;;
56680;SDS011;42558;52.388;13.390;2023-05-28T03:29:48;19.57;;;10.45;;
56680;SDS011;42558;52.388;13.390;2023-05-28T03:32:18;19.38;;;11.78;;
56680;SDS011;42558;52.388;13.390;2023-05-28T03:34:47;17.48;;;9.88;;
56680;SDS011;42558;52.388;13.390;2023-05-28T03:37:15;19.57;;;10.45;;
56680;SDS011;42558;52.388;13.390;2023-05-28T03:39:44;17.67;;;11.02;;
56680;SDS011;42558;52.388;13.390;2023-05-28T03:42:12;19.38;;;9.69;;
56680;SDS011;42558;52.388;13.390;2023-05-28T03:44:41;16.72;;;9.88;;
56680;SDS011;42558;52.388;13.390;2023-05-28T03:47:10;16.72;;;9.31;;
56680;SDS011;42558;52.388;13.390;2023-05-28T03:49:38;14.82;;;10.07;;
56680;SDS011;42558;52.388;13.390;2023-05-28T03:52:07;21.47;;;9.88;;
56680;SDS011;42558;52.388;13.390;2023-05-28T03:54:35;16.34;;;9.31;;
56680;SDS011;42558;52.388;13.390;2023-05-28T03:57:05;16.72;;;9.88;;
56680;SDS011;42558;52.388;13.390;2023-05-28T03:59:34;18.81;;;9.88;;
56680;SDS011;42558;52.388;13.390;2023-05-28T04:02:03;19.95;;;9.88;;
56680;SDS011;42558;52.388;13.390;2023-05-28T04:04:31;18.62;;;9.50;;
56680;SDS011;42558;52.388;13.390;2023-05-28T04:07:01;18.62;;;9.88;;
56680;SDS011;42558;52.388;13.390;2023-05-28T04:09:32;17.29;;;11.59;;
56680;SDS011;42558;52.388;13.390;2023-05-28T04:12:02;17.67;;;10.64;;
56680;SDS011;42558;52.388;13.390;2023-05-28T04:14:30;20.52;;;10.45;;
56680;SDS011;42558;52.388;13.390;2023-05-28T04:17:01;19.38;;;10.07;;
56680;SDS011;42558;52.388;13.390;2023-05-28T04:19:31;18.62;;;11.02;;
56680;SDS011;42558;52.388;13.390;2023-05-28T04:22:00;18.81;;;10.45;;
56680;SDS011;42558;52.388;13.390;2023-05-28T04:24:29;18.62;;;10.64;;
56680;SDS011;42558;52.388;13.390;2023-05-28T04:26:59;15.77;;;10.26;;
56680;SDS011;42558;52.388;13.390;2023-05-28T04:29:27;16.72;;;10.83;;
56680;SDS011;42558;52.388;13.390;2023-05-28T04:31:58;20.14;;;11.02;;
56680;SDS011;42558;52.388;13.390;2023-05-28T04:34:28;16.53;;;9.88;;
56680;SDS011;42558;52.388;13.390;2023-05-28T04:36:59;18.62;;;10.64;;
56680;SDS011;42558;52.388;13.390;2023-05-28T04:39:29;15.58;;;9.88;;
56680;SDS011;42558;52.388;13.390;2023-05-28T04:41:58;18.62;;;10.83;;
56680;SDS011;42558;52.388;13.390;2023-05-28T04:44:29;17.10;;;10.07;;
56680;SDS011;42558;52.388;13.390;2023-05-28T04:47:01;17.67;;;10.45;;
56680;SDS011;42558;52.388;13.390;2023-05-28T04:49:31;20.14;;;10.26;;
56680;SDS011;42558;52.388;13.390;2023-05-28T04:51:59;18.05;;;9.88;;
56680;SDS011;42558;52.388;13.390;2023-05-28T04:54:30;15.77;;;9.31;;
56680;SDS011;42558;52.388;13.390;2023-05-28T04:56:59;21.09;;;10.07;;
56680;SDS011;42558;52.388;13.390;2023-05-28T04:59:29;20.71;;;10.45;;
56680;SDS011;42558;52.388;13.390;2023-05-28T05:01:59;22.04;;;10.26;;
56680;SDS011;42558;52.388;13.390;2023-05-28T05:04:28;21.47;;;11.21;;
56680;SDS011;42558;52.388;13.390;2023-05-28T05:06:58;17.86;;;10.26;;
56680;SDS011;42558;52.388;13.390;2023-05-28T05:09:27;22.42;;;9.69;;
56680;SDS011;42558;52.388;13.390;2023-05-28T05:11:56;19.76;;;10.07;;
56680;SDS011;42558;52.388;13.390;2023-05-28T05:14:24;21.09;;;10.07;;
56680;SDS011;42558;52.388;13.390;2023-05-28T05:16:53;17.10;;;10.26;;
56680;SDS011;42558;52.388;13.390;2023-05-28T05:19:21;18.24;;;9.88;;
56680;SDS011;42558;52.388;13.390;2023-05-28T05:21:50;17.29;;;10.26;;
56680;SDS011;42558;52.388;13.390;2023-05-28T05:24:18;17.86;;;8.74;;
56680;SDS011;42558;52.388;13.390;2023-05-28T05:26:47;15.39;;;8.55;;
56680;SDS011;42558;52.388;13.390;2023-05-28T05:29:15;16.15;;;8.93;;
56680;SDS011;42558;52.388;13.390;2023-05-28T05:31:43;14.63;;;8.74;;
56680;SDS011;42558;52.388;13.390;2023-05-28T05:34:12;15.20;;;8.55;;
56680;SDS011;42558;52.388;13.390;2023-05-28T05:36:40;17.48;;;8.36;;
56680;SDS011;42558;52.388;13.390;2023-05-28T05:39:09;15.77;;;8.55;;
56680;SDS011;42558;52.388;13.390;2023-05-28T05:41:37;15.01;;;7.98;;
56680;SDS011;42558;52.388;13.390;2023-05-28T05:44:06;16.34;;;7.98;;
56680;SDS011;42558;52.388;13.390;2023-05-28T05:46:34;16.15;;;8.17;;
56680;SDS011;42558;52.388;13.390;2023-05-28T05:49:03;16.53;;;8.17;;
56680;SDS011;42558;52.388;13.390;2023-05-28T05:51:31;12.35;;;7.79;;
56680;SDS011;42558;52.388;13.390;2023-05-28T05:53:59;17.29;;;7.79;;
56680;SDS011;42558;52.388;13.390;2023-05-28T05:56:28;15.39;;;7.03;;
56680;SDS011;42558;52.388;13.390;2023-05-28T05:58:59;18.81;;;7.22;;
56680;SDS011;42558;52.388;13.390;2023-05-28T06:01:28;15.96;;;7.22;;
56680;SDS011;42558;52.388;13.390;2023-05-28T06:03:59;15.96;;;8.55;;
56680;SDS011;42558;52.388;13.390;2023-05-28T06:06:29;14.25;;;7.79;;
56680;SDS011;42558;52.388;13.390;2023-05-28T06:08:59;14.44;;;7.60;;
56680;SDS011;42558;52.388;13.390;2023-05-28T06:11:29;15.77;;;7.60;;
56680;SDS011;42558;52.388;13.390;2023-05-28T06:13:59;14.25;;;7.03;;
56680;SDS011;42558;52.388;13.390;2023-05-28T06:16:29;12.92;;;6.84;;
56680;SDS011;42558;52.388;13.390;2023-05-28T06:18:59;15.01;;;7.22;;
56680;SDS011;42558;52.388;13.390;2023-05-28T06:21:30;15.01;;;7.22;;
56680;SDS011;42558;52.388;13.390;2023-05-28T06:24:00;12.54;;;6.65;;
56680;SDS011;42558;52.388;13.390;2023-05-28T06:26:28;13.87;;;6.27;;
56680;SDS011;42558;52.388;13.390;2023-05-28T06:28:56;14.25;;;6.84;;
56680;SDS011;42558;52.388;13.390;2023-05-28T06:31:25;16.53;;;7.41;;
56680;SDS011;42558;52.388;13.390;2023-05-28T06:33:53;13.87;;;7.03;;
56680;SDS011;42558;52.388;13.390;2023-05-28T06:36:22;12.92;;;6.46;;
56680;SDS011;42558;52.388;13.390;2023-05-28T06:38:50;17.48;;;7.60;;
56680;SDS011;42558;52.388;13.390;2023-05-28T06:41:19;15.01;;;8.17;;
56680;SDS011;42558;52.388;13.390;2023-05-28T06:43:47;17.48;;;7.79;;
56680;SDS011;42558;52.388;13.390;2023-05-28T06:46:16;14.25;;;7.22;;
56680;SDS011;42558;52.388;13.390;2023-05-28T06:48:44;15.96;;;7.79;;
56680;SDS011;42558;52.388;13.390;2023-05-28T06:51:13;16.91;;;7.41;;
56680;SDS011;42558;52.388;13.390;2023-05-28T06:53:41;13.87;;;7.79;;
56680;SDS011;42558;52.388;13.390;2023-05-28T06:56:11;12.73;;;6.08;;
56680;SDS011;42558;52.388;13.390;2023-05-28T06:58:39;16.91;;;6.46;;
56680;SDS011;42558;52.388;13.390;2023-05-28T07:01:08;16.15;;;7.60;;
56680;SDS011;42558;52.388;13.390;2023-05-28T07:03:36;15.39;;;6.84;;
56680;SDS011;42558;52.388;13.390;2023-05-28T07:06:05;12.35;;;7.03;;
56680;SDS011;42558;52.388;13.390;2023-05-28T07:08:35;14.63;;;7.03;;
56680;SDS011;42558;52.388;13.390;2023-05-28T07:11:03;12.16;;;6.84;;
56680;SDS011;42558;52.388;13.390;2023-05-28T07:13:33;15.01;;;7.03;;
56680;SDS011;42558;52.388;13.390;2023-05-28T07:16:04;10.26;;;5.32;;
56680;SDS011;42558;52.388;13.390;2023-05-28T07:18:34;12.54;;;6.08;;
56680;SDS011;42558;52.388;13.390;2023-05-28T07:21:04;12.35;;;5.89;;
56680;SDS011;42558;52.388;13.390;2023-05-28T07:23:33;15.58;;;6.46;;
56680;SDS011;42558;52.388;13.390;2023-05-28T07:26:03;13.87;;;6.08;;
56680;SDS011;42558;52.388;13.390;2023-05-28T07:28:34;13.11;;;6.46;;
56680;SDS011;42558;52.388;13.390;2023-05-28T07:31:04;12.73;;;7.03;;
56680;SDS011;42558;52.388;13.390;2023-05-28T07:33:32;13.68;;;6.08;;
56680;SDS011;42558;52.388;13.390;2023-05-28T07:36:01;9.50;;;5.70;;
56680;SDS011;42558;52.388;13.390;2023-05-28T07:38:31;14.63;;;6.46;;
56680;SDS011;42558;52.388;13.390;2023-05-28T07:40:59;12.35;;;4.75;;
56680;SDS011;42558;52.388;13.390;2023-05-28T07:43:29;10.45;;;4.37;;
56680;SDS011;42558;52.388;13.390;2023-05-28T07:45:59;11.97;;;5.13;;
56680;SDS011;42558;52.388;13.390;2023-05-28T07:48:30;10.07;;;4.94;;
56680;SDS011;42558;52.388;13.390;2023-05-28T07:50:58;10.64;;;4.37;;
56680;SDS011;42558;52.388;13.390;2023-05-28T07:53:27;10.45;;;4.37;;
56680;SDS011;42558;52.388;13.390;2023-05-28T07:55:55;11.40;;;4.56;;
56680;SDS011;42558;52.388;13.390;2023-05-28T07:58:23;10.83;;;4.56;;
56680;SDS011;42558;52.388;13.390;2023-05-28T08:00:52;10.83;;;4.75;;
56680;SDS011;42558;52.388;13.390;2023-05-28T08:03:20;10.64;;;4.75;;
56680;SDS011;42558;52.388;13.390;2023-05-28T08:05:49;12.16;;;4.56;;
56680;SDS011;42558;52.388;13.390;2023-05-28T08:08:17;9.12;;;3.99;;
56680;SDS011;42558;52.388;13.390;2023-05-28T08:10:46;12.35;;;5.51;;
56680;SDS011;42558;52.388;13.390;2023-05-28T08:13:14;16.15;;;3.99;;
56680;SDS011;42558;52.388;13.390;2023-05-28T08:15:43;10.07;;;4.56;;
56680;SDS011;42558;52.388;13.390;2023-05-28T08:18:11;9.88;;;4.37;;
56680;SDS011;42558;52.388;13.390;2023-05-28T08:20:41;12.35;;;4.94;;
56680;SDS011;42558;52.388;13.390;2023-05-28T08:23:10;11.02;;;4.18;;
56680;SDS011;42558;52.388;13.390;2023-05-28T08:25:38;10.07;;;5.32;;
56680;SDS011;42558;52.388;13.390;2023-05-28T08:28:07;13.11;;;4.75;;
56680;SDS011;42558;52.388;13.390;2023-05-28T08:30:38;9.50;;;4.56;;
56680;SDS011;42558;52.388;13.390;2023-05-28T08:33:07;7.79;;;4.18;;
56680;SDS011;42558;52.388;13.390;2023-05-28T08:35:35;9.69;;;3.99;;
56680;SDS011;42558;52.388;13.390;2023-05-28T08:38:04;9.69;;;4.75;;
56680;SDS011;42558;52.388;13.390;2023-05-28T08:40:39;10.07;;;4.18;;
56680;SDS011;42558;52.388;13.390;2023-05-28T08:43:10;8.74;;;4.37;;
56680;SDS011;42558;52.388;13.390;2023-05-28T08:45:40;9.88;;;4.94;;
56680;SDS011;42558;52.388;13.390;2023-05-28T08:48:11;9.12;;;4.18;;
56680;SDS011;42558;52.388;13.390;2023-05-28T08:50:46;12.16;;;4.75;;
56680;SDS011;42558;52.388;13.390;2023-05-28T08:53:21;9.88;;;4.37;;
56680;SDS011;42558;52.388;13.390;2023-05-28T08:55:55;8.74;;;4.18;;
56680;SDS011;42558;52.388;13.390;2023-05-28T08:58:26;9.69;;;4.56;;
56680;SDS011;42558;52.388;13.390;2023-05-28T09:00:56;11.02;;;3.61;;
56680;SDS011;42558;52.388;13.390;2023-05-28T09:03:26;9.31;;;4.18;;
56680;SDS011;42558;52.388;13.390;2023-05-28T09:05:56;9.50;;;4.56;;
56680;SDS011;42558;52.388;13.390;2023-05-28T09:08:26;11.78;;;4.18;;
56680;SDS011;42558;52.388;13.390;2023-05-28T09:10:56;11.02;;;4.37;;
56680;SDS011;42558;52.388;13.390;2023-05-28T09:13:27;12.73;;;4.37;;
56680;SDS011;42558;52.388;13.390;2023-05-28T09:15:57;12.16;;;4.37;;
56680;SDS011;42558;52.388;13.390;2023-05-28T09:18:27;11.02;;;3.99;;
56680;SDS011;42558;52.388;13.390;2023-05-28T09:21:00;9.50;;;4.56;;
56680;SDS011;42558;52.388;13.390;2023-05-28T09:23:36;8.36;;;4.56;;
56680;SDS011;42558;52.388;13.390;2023-05-28T09:26:08;13.68;;;4.37;;
56680;SDS011;42558;52.388;13.390;2023-05-28T09:28:42;8.36;;;4.18;;
56680;SDS011;42558;52.388;13.390;2023-05-28T09:31:13;9.88;;;4.75;;
56680;SDS011;42558;52.388;13.390;2023-05-28T09:33:45;9.50;;;4.37;;
56680;SDS011;42558;52.388;13.390;2023-05-28T09:36:16;12.92;;;4.56;;
56680;SDS011;42558;52.388;13.390;2023-05-28T09:38:47;11.40;;;3.99;;
56680;SDS011;42558;52.388;13.390;2023-05-28T09:43:58;10.45;;;4.56;;
56680;SDS011;42558;52.388;13.390;2023-05-28T09:46:34;8.93;;;3.99;;
56680;SDS011;42558;52.388;13.390;2023-05-28T09:49:05;10.26;;;4.56;;
56680;SDS011;42558;52.388;13.390;2023-05-28T09:51:33;11.40;;;4.56;;
56680;SDS011;42558;52.388;13.390;2023-05-28T09:54:04;11.21;;;4.56;;
56680;SDS011;42558;52.388;13.390;2023-05-28T09:56:39;9.69;;;4.56;;
56680;SDS011;42558;52.388;13.390;2023-05-28T09:59:12;13.87;;;5.51;;
56680;SDS011;42558;52.388;13.390;2023-05-28T10:02:13;10.45;;;4.75;;
56680;SDS011;42558;52.388;13.390;2023-05-28T10:04:57;11.97;;;4.94;;
56680;SDS011;42558;52.388;13.390;2023-05-28T10:07:33;10.26;;;4.56;;
56680;SDS011;42558;52.388;13.390;2023-05-28T10:10:05;10.07;;;4.37;;
56680;SDS011;42558;52.388;13.390;2023-05-28T10:12:38;9.69;;;4.37;;
56680;SDS011;42558;52.388;13.390;2023-05-28T10:15:10;11.97;;;4.56;;
56680;SDS011;42558;52.388;13.390;2023-05-28T10:17:41;10.45;;;4.75;;
56680;SDS011;42558;52.388;13.390;2023-05-28T10:20:12;9.31;;;4.37;;
56680;SDS011;42558;52.388;13.390;2023-05-28T10:22:44;9.12;;;4.18;;
56680;SDS011;42558;52.388;13.390;2023-05-28T10:25:15;11.59;;;4.18;;
56680;SDS011;42558;52.388;13.390;2023-05-28T10:27:46;9.50;;;4.75;;
56680;SDS011;42558;52.388;13.390;2023-05-28T10:30:34;9.69;;;4.56;;
56680;SDS011;42558;52.388;13.390;2023-05-28T10:33:08;12.35;;;5.32;;
56680;SDS011;42558;52.388;13.390;2023-05-28T10:35:53;10.26;;;5.13;;
56680;SDS011;42558;52.388;13.390;2023-05-28T10:38:25;10.64;;;3.80;;
56680;SDS011;42558;52.388;13.390;2023-05-28T10:41:00;9.31;;;4.56;;
56680;SDS011;42558;52.388;13.390;2023-05-28T10:43:47;8.36;;;4.56;;
56680;SDS011;42558;52.388;13.390;2023-05-28T10:46:35;12.35;;;4.56;;
56680;SDS011;42558;52.388;13.390;2023-05-28T10:49:15;9.88;;;4.37;;
56680;SDS011;42558;52.388;13.390;2023-05-28T10:52:00;8.93;;;4.18;;
56680;SDS011;42558;52.388;13.390;2023-05-28T10:57:15;8.93;;;4.18;;
56680;SDS011;42558;52.388;13.390;2023-05-28T10:59:58;7.79;;;4.56;;
56680;SDS011;42558;52.388;13.390;2023-05-28T11:02:33;9.69;;;5.13;;
56680;SDS011;42558;52.388;13.390;2023-05-28T11:05:04;8.93;;;4.37;;
56680;SDS011;42558;52.388;13.390;2023-05-28T11:07:41;9.69;;;4.56;;
56680;SDS011;42558;52.388;13.390;2023-05-28T11:10:14;10.07;;;5.32;;
56680;SDS011;42558;52.388;13.390;2023-05-28T11:12:45;10.83;;;4.56;;
56680;SDS011;42558;52.388;13.390;2023-05-28T11:15:16;10.45;;;5.13;;
56680;SDS011;42558;52.388;13.390;2023-05-28T11:17:46;12.73;;;4.94;;
56680;SDS011;42558;52.388;13.390;2023-05-28T11:20:25;10.26;;;4.94;;
56680;SDS011;42558;52.388;13.390;2023-05-28T11:22:55;8.93;;;4.75;;
56680;SDS011;42558;52.388;13.390;2023-05-28T11:25:24;12.73;;;4.56;;
56680;SDS011;42558;52.388;13.390;2023-05-28T11:27:53;13.11;;;4.94;;
56680;SDS011;42558;52.388;13.390;2023-05-28T11:30:21;11.02;;;4.37;;
56680;SDS011;42558;52.388;13.390;2023-05-28T11:32:49;9.50;;;4.75;;
56680;SDS011;42558;52.388;13.390;2023-05-28T11:35:17;11.59;;;4.94;;
56680;SDS011;42558;52.388;13.390;2023-05-28T11:37:46;9.31;;;5.13;;
56680;SDS011;42558;52.388;13.390;2023-05-28T11:40:14;11.78;;;4.18;;
56680;SDS011;42558;52.388;13.390;2023-05-28T11:42:44;13.68;;;5.32;;
56680;SDS011;42558;52.388;13.390;2023-05-28T11:45:12;11.21;;;5.32;;
56680;SDS011;42558;52.388;13.390;2023-05-28T11:47:40;11.97;;;4.75;;
56680;SDS011;42558;52.388;13.390;2023-05-28T11:50:14;12.54;;;5.32;;
56680;SDS011;42558;52.388;13.390;2023-05-28T11:52:45;12.35;;;4.37;;
56680;SDS011;42558;52.388;13.390;2023-05-28T11:55:15;10.07;;;4.75;;
56680;SDS011;42558;52.388;13.390;2023-05-28T11:57:52;15.01;;;4.56;;
56680;SDS011;42558;52.388;13.390;2023-05-28T12:00:32;10.07;;;4.94;;
56680;SDS011;42558;52.388;13.390;2023-05-28T12:03:03;11.02;;;4.75;;
56680;SDS011;42558;52.388;13.390;2023-05-28T12:05:37;9.12;;;4.37;;
56680;SDS011;42558;52.388;13.390;2023-05-28T12:08:10;10.83;;;5.13;;
56680;SDS011;42558;52.388;13.390;2023-05-28T12:10:40;9.50;;;4.75;;
56680;SDS011;42558;52.388;13.390;2023-05-28T12:13:12;9.50;;;4.18;;
56680;SDS011;42558;52.388;13.390;2023-05-28T12:15:43;13.30;;;5.32;;
56680;SDS011;42558;52.388;13.390;2023-05-28T12:18:13;9.50;;;5.32;;
56680;SDS011;42558;52.388;13.390;2023-05-28T12:20:43;10.83;;;5.13;;
56680;SDS011;42558;52.388;13.390;2023-05-28T12:23:12;11.78;;;4.75;;
56680;SDS011;42558;52.388;13.390;2023-05-28T12:28:14;11.78;;;4.56;;
56680;SDS011;42558;52.388;13.390;2023-05-28T12:30:48;9.50;;;4.56;;
56680;SDS011;42558;52.388;13.390;2023-05-28T12:33:23;11.97;;;5.13;;
56680;SDS011;42558;52.388;13.390;2023-05-28T12:35:51;12.54;;;4.94;;
56680;SDS011;42558;52.388;13.390;2023-05-28T12:38:19;10.45;;;4.75;;
56680;SDS011;42558;52.388;13.390;2023-05-28T12:40:48;9.50;;;5.13;;
56680;SDS011;42558;52.388;13.390;2023-05-28T12:43:16;9.50;;;5.13;;
56680;SDS011;42558;52.388;13.390;2023-05-28T12:45:45;10.07;;;4.94;;
56680;SDS011;42558;52.388;13.390;2023-05-28T12:48:14;8.93;;;4.94;;
56680;SDS011;42558;52.388;13.390;2023-05-28T12:50:42;12.92;;;4.94;;
56680;SDS011;42558;52.388;13.390;2023-05-28T12:53:10;8.55;;;4.56;;
56680;SDS011;42558;52.388;13.390;2023-05-28T12:55:38;11.21;;;6.27;;
56680;SDS011;42558;52.388;13.390;2023-05-28T12:58:07;8.36;;;4.94;;
56680;SDS011;42558;52.388;13.390;2023-05-28T13:00:37;11.78;;;4.94;;
56680;SDS011;42558;52.388;13.390;2023-05-28T13:03:06;10.07;;;4.94;;
56680;SDS011;42558;52.388;13.390;2023-05-28T13:05:34;12.92;;;5.51;;
56680;SDS011;42558;52.388;13.390;2023-05-28T13:08:03;8.36;;;4.75;;
56680;SDS011;42558;52.388;13.390;2023-05-28T13:10:31;9.88;;;5.32;;
56680;SDS011;42558;52.388;13.390;2023-05-28T13:13:00;10.26;;;4.56;;
56680;SDS011;42558;52.388;13.390;2023-05-28T13:15:28;9.50;;;4.94;;
56680;SDS011;42558;52.388;13.390;2023-05-28T13:18:31;7.98;;;4.18;;
56680;SDS011;42558;52.388;13.390;2023-05-28T13:21:03;8.93;;;4.75;;
56680;SDS011;42558;52.388;13.390;2023-05-28T13:23:33;11.59;;;5.32;;
56680;SDS011;42558;52.388;13.390;2023-05-28T13:26:03;9.69;;;5.51;;
56680;SDS011;42558;52.388;13.390;2023-05-28T13:28:33;11.40;;;5.89;;
56680;SDS011;42558;52.388;13.390;2023-05-28T13:31:03;9.12;;;4.94;;
56680;SDS011;42558;52.388;13.390;2023-05-28T13:33:34;11.21;;;4.94;;
56680;SDS011;42558;52.388;13.390;2023-05-28T13:36:04;9.50;;;4.75;;
56680;SDS011;42558;52.388;13.390;2023-05-28T13:38:36;10.26;;;4.75;;
56680;SDS011;42558;52.388;13.390;2023-05-28T13:41:06;11.21;;;4.56;;
56680;SDS011;42558;52.388;13.390;2023-05-28T13:43:39;10.83;;;4.37;;
56680;SDS011;42558;52.388;13.390;2023-05-28T13:53:52;8.93;;;4.18;;
56680;SDS011;42558;52.388;13.390;2023-05-28T13:56:21;11.78;;;4.94;;
56680;SDS011;42558;52.388;13.390;2023-05-28T13:58:50;10.45;;;4.18;;
56680;SDS011;42558;52.388;13.390;2023-05-28T14:01:18;12.16;;;4.75;;
56680;SDS011;42558;52.388;13.390;2023-05-28T14:03:47;9.31;;;4.94;;
56680;SDS011;42558;52.388;13.390;2023-05-28T14:06:15;11.21;;;4.94;;
56680;SDS011;42558;52.388;13.390;2023-05-28T14:08:44;9.12;;;4.94;;
56680;SDS011;42558;52.388;13.390;2023-05-28T14:11:12;11.40;;;4.94;;
56680;SDS011;42558;52.388;13.390;2023-05-28T14:13:42;11.21;;;4.56;;
56680;SDS011;42558;52.388;13.390;2023-05-28T14:16:10;8.36;;;4.37;;
56680;SDS011;42558;52.388;13.390;2023-05-28T14:18:39;12.16;;;5.13;;
56680;SDS011;42558;52.388;13.390;2023-05-28T14:21:07;12.92;;;5.70;;
56680;SDS011;42558;52.388;13.390;2023-05-28T14:23:36;10.83;;;6.65;;
56680;SDS011;42558;52.388;13.390;2023-05-28T14:26:07;9.69;;;4.56;;
56680;SDS011;42558;52.388;13.390;2023-05-28T14:28:37;9.69;;;4.94;;
56680;SDS011;42558;52.388;13.390;2023-05-28T14:31:07;13.30;;;4.94;;
56680;SDS011;42558;52.388;13.390;2023-05-28T14:33:36;9.88;;;4.75;;
56680;SDS011;42558;52.388;13.390;2023-05-28T14:36:06;10.64;;;4.94;;
56680;SDS011;42558;52.388;13.390;2023-05-28T14:38:42;9.69;;;4.75;;
56680;SDS011;42558;52.388;13.390;2023-05-28T14:41:13;10.26;;;5.51;;
56680;SDS011;42558;52.388;13.390;2023-05-28T14:43:44;10.64;;;5.13;;
56680;SDS011;42558;52.388;13.390;2023-05-28T14:46:14;13.30;;;5.51;;
56680;SDS011;42558;52.388;13.390;2023-05-28T14:48:43;11.21;;;5.32;;
56680;SDS011;42558;52.388;13.390;2023-05-28T14:51:11;7.98;;;4.56;;
56680;SDS011;42558;52.388;13.390;2023-05-28T14:53:43;11.40;;;5.32;;
56680;SDS011;42558;52.388;13.390;2023-05-28T14:56:11;12.54;;;4.94;;